sensor_id;sensor_type;location;lat;lon;timestamp;pressure;altitude;pressure_sealevel;temperature;humidity
61478;BME280;47345;52.334;10.392;2023-01-31T00:00:18;101082.00;;;2.31;93.67
61478;BME280;47345;52.334;10.392;2023-01-31T00:02:49;101078.62;;;2.28;93.72
61478;BME280;47345;52.334;10.392;2023-01-31T00:05:19;101080.52;;;2.27;93.79
61478;BME280;47345;52.334;10.392;2023-01-31T00:07:50;101082.22;;;2.28;94.08
61478;BME280;47345;52.334;10.392;2023-01-31T00:10:21;101080.92;;;2.31;94.07
61478;BME280;47345;52.334;10.392;2023-01-31T00:12:51;101078.70;;;2.33;94.24
61478;BME280;47345;52.334;10.392;2023-01-31T00:15:22;101087.96;;;2.36;94.01
61478;BME280;47345;52.334;10.392;2023-01-31T00:17:53;101092.05;;;2.37;94.21
61478;BME280;47345;52.334;10.392;2023-01-31T00:20:23;101090.71;;;2.38;94.16
61478;BME280;47345;52.334;10.392;2023-01-31T00:22:53;101095.15;;;2.41;93.96
61478;BME280;47345;52.334;10.392;2023-01-31T00:25:24;101096.25;;;2.40;94.14
61478;BME280;47345;52.334;10.392;2023-01-31T00:27:54;101104.55;;;2.40;93.90
61478;BME280;47345;52.334;10.392;2023-01-31T00:30:25;101112.40;;;2.39;93.57
61478;BME280;47345;52.334;10.392;2023-01-31T00:32:56;101113.56;;;2.38;93.97
61478;BME280;47345;52.334;10.392;2023-01-31T00:35:26;101113.66;;;2.37;93.67
61478;BME280;47345;52.334;10.392;2023-01-31T00:37:57;101114.25;;;2.36;93.78
61478;BME280;47345;52.334;10.392;2023-01-31T00:40:28;101120.79;;;2.35;93.98
61478;BME280;47345;52.334;10.392;2023-01-31T00:42:58;101122.50;;;2.34;93.67
61478;BME280;47345;52.334;10.392;2023-01-31T00:45:29;101127.38;;;2.34;93.49
61478;BME280;47345;52.334;10.392;2023-01-31T00:47:59;101127.49;;;2.33;93.62
61478;BME280;47345;52.334;10.392;2023-01-31T00:50:29;101119.20;;;2.33;93.63
61478;BME280;47345;52.334;10.392;2023-01-31T00:53:00;101125.73;;;2.32;93.59
61478;BME280;47345;52.334;10.392;2023-01-31T00:55:31;101129.23;;;2.32;93.75
61478;BME280;47345;52.334;10.392;2023-01-31T00:58:02;101136.76;;;2.32;93.37
61478;BME280;47345;52.334;10.392;2023-01-31T01:00:33;101140.14;;;2.32;93.67
61478;BME280;47345;52.334;10.392;2023-01-31T01:03:04;101139.40;;;2.34;93.81
61478;BME280;47345;52.334;10.392;2023-01-31T01:05:34;101142.95;;;2.37;93.58
61478;BME280;47345;52.334;10.392;2023-01-31T01:08:06;101147.04;;;2.40;93.55
61478;BME280;47345;52.334;10.392;2023-01-31T01:10:37;101149.92;;;2.42;93.88
61478;BME280;47345;52.334;10.392;2023-01-31T01:13:08;101148.50;;;2.44;93.89
61478;BME280;47345;52.334;10.392;2023-01-31T01:15:39;101150.96;;;2.46;93.80
61478;BME280;47345;52.334;10.392;2023-01-31T01:18:09;101151.73;;;2.47;93.88
61478;BME280;47345;52.334;10.392;2023-01-31T01:20:40;101152.64;;;2.49;93.78
61478;BME280;47345;52.334;10.392;2023-01-31T01:23:10;101154.41;;;2.52;94.09
61478;BME280;47345;52.334;10.392;2023-01-31T01:25:44;101162.59;;;2.55;93.90
61478;BME280;47345;52.334;10.392;2023-01-31T01:28:14;101160.20;;;2.57;93.41
61478;BME280;47345;52.334;10.392;2023-01-31T01:30:45;101161.98;;;2.57;93.94
61478;BME280;47345;52.334;10.392;2023-01-31T01:33:16;101163.85;;;2.60;93.76
61478;BME280;47345;52.334;10.392;2023-01-31T01:35:46;101165.77;;;2.63;93.85
61478;BME280;47345;52.334;10.392;2023-01-31T01:38:17;101169.14;;;2.65;93.77
61478;BME280;47345;52.334;10.392;2023-01-31T01:40:49;101162.98;;;2.66;93.48
61478;BME280;47345;52.334;10.392;2023-01-31T01:43:20;101168.98;;;2.69;93.40
61478;BME280;47345;52.334;10.392;2023-01-31T01:45:53;101176.65;;;2.72;93.57
61478;BME280;47345;52.334;10.392;2023-01-31T01:48:23;101187.25;;;2.74;93.43
61478;BME280;47345;52.334;10.392;2023-01-31T01:50:54;101185.90;;;2.77;93.66
61478;BME280;47345;52.334;10.392;2023-01-31T01:53:27;101187.00;;;2.80;93.28
61478;BME280;47345;52.334;10.392;2023-01-31T01:56:02;101191.59;;;2.84;93.64
61478;BME280;47345;52.334;10.392;2023-01-31T01:58:38;101190.04;;;2.86;93.64
61478;BME280;47345;52.334;10.392;2023-01-31T02:01:12;101200.73;;;2.90;93.61
61478;BME280;47345;52.334;10.392;2023-01-31T02:03:47;101203.41;;;2.92;93.56
61478;BME280;47345;52.334;10.392;2023-01-31T02:06:18;101209.20;;;2.93;93.79
61478;BME280;47345;52.334;10.392;2023-01-31T02:08:50;101207.69;;;2.96;93.63
61478;BME280;47345;52.334;10.392;2023-01-31T02:11:23;101205.95;;;2.98;93.76
61478;BME280;47345;52.334;10.392;2023-01-31T02:13:59;101206.25;;;2.98;94.11
61478;BME280;47345;52.334;10.392;2023-01-31T02:16:30;101216.52;;;2.98;93.47
61478;BME280;47345;52.334;10.392;2023-01-31T02:19:01;101222.54;;;2.99;93.82
61478;BME280;47345;52.334;10.392;2023-01-31T02:21:53;101223.94;;;2.98;93.47
61478;BME280;47345;52.334;10.392;2023-01-31T02:25:04;101219.67;;;2.97;93.63
61478;BME280;47345;52.334;10.392;2023-01-31T02:27:56;101213.38;;;2.97;93.18
61478;BME280;47345;52.334;10.392;2023-01-31T02:33:45;101210.05;;;2.96;93.06
61478;BME280;47345;52.334;10.392;2023-01-31T02:36:28;101210.12;;;2.93;93.11
61478;BME280;47345;52.334;10.392;2023-01-31T02:39:12;101209.86;;;2.92;93.00
61478;BME280;47345;52.334;10.392;2023-01-31T02:41:53;101211.72;;;2.90;93.10
61478;BME280;47345;52.334;10.392;2023-01-31T02:44:29;101208.16;;;2.87;92.70
61478;BME280;47345;52.334;10.392;2023-01-31T02:47:26;101210.55;;;2.85;92.99
61478;BME280;47345;52.334;10.392;2023-01-31T02:50:02;101208.80;;;2.83;93.00
61478;BME280;47345;52.334;10.392;2023-01-31T02:52:40;101209.25;;;2.82;93.07
61478;BME280;47345;52.334;10.392;2023-01-31T02:55:16;101213.94;;;2.81;93.15
61478;BME280;47345;52.334;10.392;2023-01-31T02:58:07;101218.34;;;2.80;93.37
61478;BME280;47345;52.334;10.392;2023-01-31T03:00:40;101223.27;;;2.80;93.20
61478;BME280;47345;52.334;10.392;2023-01-31T03:03:20;101228.85;;;2.80;93.20
61478;BME280;47345;52.334;10.392;2023-01-31T03:08:55;101228.40;;;2.81;93.36
61478;BME280;47345;52.334;10.392;2023-01-31T03:11:42;101228.41;;;2.83;93.36
61478;BME280;47345;52.334;10.392;2023-01-31T03:14:21;101222.96;;;2.83;93.52
61478;BME280;47345;52.334;10.392;2023-01-31T03:16:55;101228.68;;;2.86;93.47
61478;BME280;47345;52.334;10.392;2023-01-31T03:19:49;101233.23;;;2.87;93.47
61478;BME280;47345;52.334;10.392;2023-01-31T03:22:29;101223.13;;;2.87;93.26
61478;BME280;47345;52.334;10.392;2023-01-31T03:25:01;101219.16;;;2.91;93.59
61478;BME280;47345;52.334;10.392;2023-01-31T03:27:34;101222.00;;;2.93;94.07
61478;BME280;47345;52.334;10.392;2023-01-31T03:30:10;101214.64;;;2.95;94.08
61478;BME280;47345;52.334;10.392;2023-01-31T03:32:46;101214.84;;;2.95;93.93
61478;BME280;47345;52.334;10.392;2023-01-31T03:35:19;101220.66;;;2.94;93.77
61478;BME280;47345;52.334;10.392;2023-01-31T03:37:55;101221.35;;;2.93;94.40
61478;BME280;47345;52.334;10.392;2023-01-31T03:40:32;101232.94;;;2.94;94.49
61478;BME280;47345;52.334;10.392;2023-01-31T03:43:06;101221.09;;;2.95;94.51
61478;BME280;47345;52.334;10.392;2023-01-31T03:45:43;101220.74;;;2.98;94.88
61478;BME280;47345;52.334;10.392;2023-01-31T03:48:15;101219.09;;;2.98;94.92
61478;BME280;47345;52.334;10.392;2023-01-31T03:50:53;101209.96;;;2.97;94.69
61478;BME280;47345;52.334;10.392;2023-01-31T03:53:31;101216.34;;;2.96;95.01
61478;BME280;47345;52.334;10.392;2023-01-31T03:56:09;101221.29;;;2.95;94.99
61478;BME280;47345;52.334;10.392;2023-01-31T03:58:47;101216.69;;;2.92;94.67
61478;BME280;47345;52.334;10.392;2023-01-31T04:01:24;101217.08;;;2.89;94.70
61478;BME280;47345;52.334;10.392;2023-01-31T04:03:58;101215.38;;;2.85;94.47
61478;BME280;47345;52.334;10.392;2023-01-31T04:06:30;101210.19;;;2.81;94.50
61478;BME280;47345;52.334;10.392;2023-01-31T04:09:01;101210.39;;;2.77;94.54
61478;BME280;47345;52.334;10.392;2023-01-31T04:11:36;101208.13;;;2.74;94.57
61478;BME280;47345;52.334;10.392;2023-01-31T04:14:07;101209.59;;;2.72;94.45
61478;BME280;47345;52.334;10.392;2023-01-31T04:16:39;101210.77;;;2.69;94.56
61478;BME280;47345;52.334;10.392;2023-01-31T04:19:10;101203.33;;;2.66;94.62
61478;BME280;47345;52.334;10.392;2023-01-31T04:21:40;101203.97;;;2.63;94.74
61478;BME280;47345;52.334;10.392;2023-01-31T04:24:10;101206.88;;;2.60;94.86
61478;BME280;47345;52.334;10.392;2023-01-31T04:26:41;101206.02;;;2.60;94.62
61478;BME280;47345;52.334;10.392;2023-01-31T04:29:11;101202.65;;;2.59;94.77
61478;BME280;47345;52.334;10.392;2023-01-31T04:31:42;101200.05;;;2.60;94.64
61478;BME280;47345;52.334;10.392;2023-01-31T04:34:13;101204.14;;;2.61;95.01
61478;BME280;47345;52.334;10.392;2023-01-31T04:36:44;101209.61;;;2.66;95.07
61478;BME280;47345;52.334;10.392;2023-01-31T04:39:14;101208.02;;;2.70;94.85
61478;BME280;47345;52.334;10.392;2023-01-31T04:41:45;101210.80;;;2.73;94.64
61478;BME280;47345;52.334;10.392;2023-01-31T04:44:15;101208.78;;;2.75;94.51
61478;BME280;47345;52.334;10.392;2023-01-31T04:46:46;101211.73;;;2.76;94.11
61478;BME280;47345;52.334;10.392;2023-01-31T04:49:16;101206.85;;;2.76;94.00
61478;BME280;47345;52.334;10.392;2023-01-31T04:51:47;101205.52;;;2.77;93.66
61478;BME280;47345;52.334;10.392;2023-01-31T04:54:17;101208.09;;;2.76;93.84
61478;BME280;47345;52.334;10.392;2023-01-31T04:56:48;101215.99;;;2.77;93.72
61478;BME280;47345;52.334;10.392;2023-01-31T04:59:18;101209.99;;;2.77;93.81
61478;BME280;47345;52.334;10.392;2023-01-31T05:01:49;101218.30;;;2.77;93.58
61478;BME280;47345;52.334;10.392;2023-01-31T05:04:19;101219.15;;;2.76;93.45
61478;BME280;47345;52.334;10.392;2023-01-31T05:06:52;101228.01;;;2.75;93.37
61478;BME280;47345;52.334;10.392;2023-01-31T05:09:22;101230.24;;;2.75;93.30
61478;BME280;47345;52.334;10.392;2023-01-31T05:11:53;101230.48;;;2.72;93.09
61478;BME280;47345;52.334;10.392;2023-01-31T05:14:23;101232.27;;;2.70;92.97
61478;BME280;47345;52.334;10.392;2023-01-31T05:16:53;101231.31;;;2.69;92.98
61478;BME280;47345;52.334;10.392;2023-01-31T05:19:24;101225.91;;;2.69;93.05
61478;BME280;47345;52.334;10.392;2023-01-31T05:21:54;101226.21;;;2.68;92.65
61478;BME280;47345;52.334;10.392;2023-01-31T05:24:29;101223.36;;;2.67;92.61
61478;BME280;47345;52.334;10.392;2023-01-31T05:27:01;101223.18;;;2.67;92.94
61478;BME280;47345;52.334;10.392;2023-01-31T05:29:33;101221.02;;;2.69;92.73
61478;BME280;47345;52.334;10.392;2023-01-31T05:32:03;101216.69;;;2.71;92.68
61478;BME280;47345;52.334;10.392;2023-01-31T05:34:34;101223.45;;;2.74;92.80
61478;BME280;47345;52.334;10.392;2023-01-31T05:37:05;101225.39;;;2.76;92.91
61478;BME280;47345;52.334;10.392;2023-01-31T05:39:36;101221.39;;;2.79;92.67
61478;BME280;47345;52.334;10.392;2023-01-31T05:42:06;101219.38;;;2.79;92.37
61478;BME280;47345;52.334;10.392;2023-01-31T05:44:36;101224.67;;;2.80;92.37
61478;BME280;47345;52.334;10.392;2023-01-31T05:47:07;101218.43;;;2.81;92.51
61478;BME280;47345;52.334;10.392;2023-01-31T05:49:38;101222.64;;;2.83;92.38
61478;BME280;47345;52.334;10.392;2023-01-31T05:52:08;101225.35;;;2.83;92.21
61478;BME280;47345;52.334;10.392;2023-01-31T05:54:38;101223.55;;;2.83;92.31
61478;BME280;47345;52.334;10.392;2023-01-31T05:57:09;101227.29;;;2.83;92.38
61478;BME280;47345;52.334;10.392;2023-01-31T05:59:40;101235.05;;;2.85;92.22
61478;BME280;47345;52.334;10.392;2023-01-31T06:02:11;101232.09;;;2.86;92.13
61478;BME280;47345;52.334;10.392;2023-01-31T06:04:42;101232.69;;;2.87;92.07
61478;BME280;47345;52.334;10.392;2023-01-31T06:07:12;101229.05;;;2.88;92.45
61478;BME280;47345;52.334;10.392;2023-01-31T06:09:43;101236.31;;;2.89;92.33
61478;BME280;47345;52.334;10.392;2023-01-31T06:12:14;101232.22;;;2.90;91.83
61478;BME280;47345;52.334;10.392;2023-01-31T06:15:14;101235.47;;;2.92;92.22
61478;BME280;47345;52.334;10.392;2023-01-31T06:17:44;101235.66;;;2.94;91.65
61478;BME280;47345;52.334;10.392;2023-01-31T06:20:15;101235.65;;;2.96;91.86
61478;BME280;47345;52.334;10.392;2023-01-31T06:22:46;101232.55;;;2.98;91.78
61478;BME280;47345;52.334;10.392;2023-01-31T06:25:17;101229.65;;;3.00;91.52
61478;BME280;47345;52.334;10.392;2023-01-31T06:27:48;101229.30;;;3.02;91.65
61478;BME280;47345;52.334;10.392;2023-01-31T06:30:19;101227.13;;;3.04;91.48
61478;BME280;47345;52.334;10.392;2023-01-31T06:32:49;101226.23;;;3.06;91.77
61478;BME280;47345;52.334;10.392;2023-01-31T06:35:19;101216.06;;;3.07;91.44
61478;BME280;47345;52.334;10.392;2023-01-31T06:37:50;101210.34;;;3.08;91.23
61478;BME280;47345;52.334;10.392;2023-01-31T06:40:21;101213.86;;;3.09;91.51
61478;BME280;47345;52.334;10.392;2023-01-31T06:42:52;101208.37;;;3.10;91.35
61478;BME280;47345;52.334;10.392;2023-01-31T06:45:22;101207.40;;;3.11;91.17
61478;BME280;47345;52.334;10.392;2023-01-31T06:47:53;101203.73;;;3.12;91.16
61478;BME280;47345;52.334;10.392;2023-01-31T06:50:24;101196.10;;;3.12;90.92
61478;BME280;47345;52.334;10.392;2023-01-31T06:52:55;101184.81;;;3.12;90.97
61478;BME280;47345;52.334;10.392;2023-01-31T06:55:27;101178.73;;;3.13;90.88
61478;BME280;47345;52.334;10.392;2023-01-31T06:57:58;101171.94;;;3.12;90.87
61478;BME280;47345;52.334;10.392;2023-01-31T07:00:29;101169.40;;;3.12;90.76
61478;BME280;47345;52.334;10.392;2023-01-31T07:03:01;101164.91;;;3.12;91.25
61478;BME280;47345;52.334;10.392;2023-01-31T07:05:31;101161.83;;;3.12;91.10
61478;BME280;47345;52.334;10.392;2023-01-31T07:08:02;101159.58;;;3.13;91.00
61478;BME280;47345;52.334;10.392;2023-01-31T07:10:32;101155.80;;;3.13;90.59
61478;BME280;47345;52.334;10.392;2023-01-31T07:13:03;101148.92;;;3.14;90.64
61478;BME280;47345;52.334;10.392;2023-01-31T07:15:33;101141.75;;;3.15;90.60
61478;BME280;47345;52.334;10.392;2023-01-31T07:18:04;101138.70;;;3.15;91.09
61478;BME280;47345;52.334;10.392;2023-01-31T07:20:35;101145.94;;;3.16;90.65
61478;BME280;47345;52.334;10.392;2023-01-31T07:23:06;101137.17;;;3.18;90.87
61478;BME280;47345;52.334;10.392;2023-01-31T07:25:36;101133.54;;;3.20;90.80
61478;BME280;47345;52.334;10.392;2023-01-31T07:28:08;101131.95;;;3.21;90.66
61478;BME280;47345;52.334;10.392;2023-01-31T07:30:39;101123.50;;;3.23;90.70
61478;BME280;47345;52.334;10.392;2023-01-31T07:33:12;101119.16;;;3.25;90.45
61478;BME280;47345;52.334;10.392;2023-01-31T07:35:43;101114.29;;;3.27;90.32
61478;BME280;47345;52.334;10.392;2023-01-31T07:38:13;101105.56;;;3.29;90.47
61478;BME280;47345;52.334;10.392;2023-01-31T07:40:43;101104.11;;;3.32;90.63
61478;BME280;47345;52.334;10.392;2023-01-31T07:43:14;101103.47;;;3.34;90.38
61478;BME280;47345;52.334;10.392;2023-01-31T07:45:44;101096.73;;;3.37;90.40
61478;BME280;47345;52.334;10.392;2023-01-31T07:48:15;101092.73;;;3.39;90.34
61478;BME280;47345;52.334;10.392;2023-01-31T07:50:52;101088.02;;;3.41;90.24
61478;BME280;47345;52.334;10.392;2023-01-31T07:53:23;101083.52;;;3.43;90.23
61478;BME280;47345;52.334;10.392;2023-01-31T07:55:53;101080.38;;;3.44;90.35
61478;BME280;47345;52.334;10.392;2023-01-31T07:58:24;101070.32;;;3.45;90.23
61478;BME280;47345;52.334;10.392;2023-01-31T08:00:55;101064.23;;;3.47;90.32
61478;BME280;47345;52.334;10.392;2023-01-31T08:03:43;101066.43;;;3.50;90.44
61478;BME280;47345;52.334;10.392;2023-01-31T08:06:14;101056.88;;;3.52;90.27
61478;BME280;47345;52.334;10.392;2023-01-31T08:08:45;101064.73;;;3.56;90.54
61478;BME280;47345;52.334;10.392;2023-01-31T08:11:15;101070.34;;;3.60;90.75
61478;BME280;47345;52.334;10.392;2023-01-31T08:13:46;101058.34;;;3.64;90.73
61478;BME280;47345;52.334;10.392;2023-01-31T08:16:16;101058.71;;;3.66;90.60
61478;BME280;47345;52.334;10.392;2023-01-31T08:18:48;101059.84;;;3.73;90.55
61478;BME280;47345;52.334;10.392;2023-01-31T08:21:20;101058.83;;;3.77;90.61
61478;BME280;47345;52.334;10.392;2023-01-31T08:23:50;101054.04;;;3.82;90.40
61478;BME280;47345;52.334;10.392;2023-01-31T08:26:21;101048.39;;;3.88;90.29
61478;BME280;47345;52.334;10.392;2023-01-31T08:28:52;101046.89;;;3.92;90.07
61478;BME280;47345;52.334;10.392;2023-01-31T08:31:24;101043.94;;;3.98;90.08
61478;BME280;47345;52.334;10.392;2023-01-31T08:33:56;101044.17;;;4.03;89.95
61478;BME280;47345;52.334;10.392;2023-01-31T08:36:29;101042.29;;;4.07;89.74
61478;BME280;47345;52.334;10.392;2023-01-31T08:39:01;101034.70;;;4.11;89.41
61478;BME280;47345;52.334;10.392;2023-01-31T08:41:33;101029.75;;;4.15;89.47
61478;BME280;47345;52.334;10.392;2023-01-31T08:44:04;101031.48;;;4.20;89.40
61478;BME280;47345;52.334;10.392;2023-01-31T08:46:36;101030.92;;;4.25;89.36
61478;BME280;47345;52.334;10.392;2023-01-31T08:49:07;101022.52;;;4.29;89.03
61478;BME280;47345;52.334;10.392;2023-01-31T08:51:39;101018.33;;;4.33;88.99
61478;BME280;47345;52.334;10.392;2023-01-31T08:54:11;101026.52;;;4.38;88.68
61478;BME280;47345;52.334;10.392;2023-01-31T08:56:41;101026.80;;;4.44;88.85
61478;BME280;47345;52.334;10.392;2023-01-31T08:59:12;101014.05;;;4.49;88.88
61478;BME280;47345;52.334;10.392;2023-01-31T09:01:43;101012.67;;;4.57;88.69
61478;BME280;47345;52.334;10.392;2023-01-31T09:04:15;100999.92;;;4.61;88.29
61478;BME280;47345;52.334;10.392;2023-01-31T09:06:46;100999.34;;;4.65;88.13
61478;BME280;47345;52.334;10.392;2023-01-31T09:09:16;100992.55;;;4.69;88.10
61478;BME280;47345;52.334;10.392;2023-01-31T09:11:46;100981.16;;;4.73;87.67
61478;BME280;47345;52.334;10.392;2023-01-31T09:14:17;100975.50;;;4.77;87.39
61478;BME280;47345;52.334;10.392;2023-01-31T09:16:47;100979.61;;;4.79;87.07
61478;BME280;47345;52.334;10.392;2023-01-31T09:19:18;100983.95;;;4.83;86.94
61478;BME280;47345;52.334;10.392;2023-01-31T09:21:50;100983.56;;;4.86;86.71
61478;BME280;47345;52.334;10.392;2023-01-31T09:24:21;100983.61;;;4.91;86.51
61478;BME280;47345;52.334;10.392;2023-01-31T09:26:51;100977.43;;;4.95;86.17
61478;BME280;47345;52.334;10.392;2023-01-31T09:29:23;100957.67;;;4.98;86.08
61478;BME280;47345;52.334;10.392;2023-01-31T09:31:54;100961.73;;;5.03;85.90
61478;BME280;47345;52.334;10.392;2023-01-31T09:34:25;100958.79;;;5.05;85.77
61478;BME280;47345;52.334;10.392;2023-01-31T09:36:55;100957.80;;;5.08;85.58
61478;BME280;47345;52.334;10.392;2023-01-31T09:39:26;100958.80;;;5.09;85.47
61478;BME280;47345;52.334;10.392;2023-01-31T09:41:59;100966.19;;;5.10;85.32
61478;BME280;47345;52.334;10.392;2023-01-31T09:44:34;100963.14;;;5.12;85.22
61478;BME280;47345;52.334;10.392;2023-01-31T09:47:11;100956.52;;;5.13;84.96
61478;BME280;47345;52.334;10.392;2023-01-31T09:49:47;100952.67;;;5.13;84.70
61478;BME280;47345;52.334;10.392;2023-01-31T09:52:18;100948.44;;;5.14;84.96
61478;BME280;47345;52.334;10.392;2023-01-31T09:54:49;100933.63;;;5.15;84.93
61478;BME280;47345;52.334;10.392;2023-01-31T09:57:26;100934.83;;;5.20;85.20
61478;BME280;47345;52.334;10.392;2023-01-31T10:00:09;100932.79;;;5.22;85.26
61478;BME280;47345;52.334;10.392;2023-01-31T10:03:01;100938.29;;;5.24;85.24
61478;BME280;47345;52.334;10.392;2023-01-31T10:05:41;100937.30;;;5.27;85.55
61478;BME280;47345;52.334;10.392;2023-01-31T10:08:23;100936.80;;;5.28;85.84
61478;BME280;47345;52.334;10.392;2023-01-31T10:11:00;100929.34;;;5.29;86.20
61478;BME280;47345;52.334;10.392;2023-01-31T10:13:34;100923.58;;;5.28;86.81
61478;BME280;47345;52.334;10.392;2023-01-31T10:16:16;100919.38;;;5.29;87.58
61478;BME280;47345;52.334;10.392;2023-01-31T10:18:53;100925.80;;;5.27;87.95
61478;BME280;47345;52.334;10.392;2023-01-31T10:21:31;100926.35;;;5.24;88.24
61478;BME280;47345;52.334;10.392;2023-01-31T10:24:08;100929.03;;;5.18;88.46
61478;BME280;47345;52.334;10.392;2023-01-31T10:26:44;100921.83;;;5.13;88.80
61478;BME280;47345;52.334;10.392;2023-01-31T10:29:19;100922.92;;;5.08;89.32
61478;BME280;47345;52.334;10.392;2023-01-31T10:31:57;100914.98;;;5.00;89.44
61478;BME280;47345;52.334;10.392;2023-01-31T10:34:31;100901.07;;;4.95;89.73
61478;BME280;47345;52.334;10.392;2023-01-31T10:37:09;100900.13;;;4.93;90.03
61478;BME280;47345;52.334;10.392;2023-01-31T10:39:44;100902.36;;;4.90;90.20
61478;BME280;47345;52.334;10.392;2023-01-31T10:42:22;100898.75;;;4.87;90.43
61478;BME280;47345;52.334;10.392;2023-01-31T10:45:04;100890.80;;;4.85;90.34
61478;BME280;47345;52.334;10.392;2023-01-31T10:47:44;100894.98;;;4.83;90.24
61478;BME280;47345;52.334;10.392;2023-01-31T10:50:19;100884.13;;;4.82;90.24
61478;BME280;47345;52.334;10.392;2023-01-31T10:53:07;100873.83;;;4.80;90.25
61478;BME280;47345;52.334;10.392;2023-01-31T10:55:57;100873.30;;;4.80;90.25
61478;BME280;47345;52.334;10.392;2023-01-31T10:58:29;100865.05;;;4.77;90.16
61478;BME280;47345;52.334;10.392;2023-01-31T11:00:59;100854.46;;;4.77;90.26
61478;BME280;47345;52.334;10.392;2023-01-31T11:03:31;100843.19;;;4.76;90.23
61478;BME280;47345;52.334;10.392;2023-01-31T11:06:01;100839.04;;;4.76;90.20
61478;BME280;47345;52.334;10.392;2023-01-31T11:08:35;100837.66;;;4.77;90.19
61478;BME280;47345;52.334;10.392;2023-01-31T11:11:11;100819.21;;;4.76;90.12
61478;BME280;47345;52.334;10.392;2023-01-31T11:13:53;100812.69;;;4.76;90.29
61478;BME280;47345;52.334;10.392;2023-01-31T11:16:26;100802.52;;;4.76;90.20
61478;BME280;47345;52.334;10.392;2023-01-31T11:19:00;100795.95;;;4.77;90.21
61478;BME280;47345;52.334;10.392;2023-01-31T11:21:33;100794.23;;;4.78;90.37
61478;BME280;47345;52.334;10.392;2023-01-31T11:24:14;100789.14;;;4.79;90.46
61478;BME280;47345;52.334;10.392;2023-01-31T11:26:54;100779.75;;;4.83;90.65
61478;BME280;47345;52.334;10.392;2023-01-31T11:29:27;100780.60;;;4.85;90.65
61478;BME280;47345;52.334;10.392;2023-01-31T11:32:01;100789.67;;;4.88;90.69
61478;BME280;47345;52.334;10.392;2023-01-31T11:34:33;100781.41;;;4.89;90.56
61478;BME280;47345;52.334;10.392;2023-01-31T11:37:12;100778.70;;;4.91;90.54
61478;BME280;47345;52.334;10.392;2023-01-31T11:39:55;100777.08;;;4.91;90.36
61478;BME280;47345;52.334;10.392;2023-01-31T11:42:26;100776.80;;;4.91;90.23
61478;BME280;47345;52.334;10.392;2023-01-31T11:44:59;100771.66;;;4.92;90.20
61478;BME280;47345;52.334;10.392;2023-01-31T11:47:37;100764.67;;;4.93;90.13
61478;BME280;47345;52.334;10.392;2023-01-31T11:50:19;100759.27;;;4.95;89.96
61478;BME280;47345;52.334;10.392;2023-01-31T11:52:57;100758.85;;;4.97;89.91
61478;BME280;47345;52.334;10.392;2023-01-31T11:55:36;100757.34;;;4.98;89.84
61478;BME280;47345;52.334;10.392;2023-01-31T11:58:16;100756.88;;;5.00;89.81
61478;BME280;47345;52.334;10.392;2023-01-31T12:00:55;100751.36;;;5.01;89.78
61478;BME280;47345;52.334;10.392;2023-01-31T12:03:25;100737.53;;;5.02;89.81
61478;BME280;47345;52.334;10.392;2023-01-31T12:06:02;100733.77;;;5.03;89.90
61478;BME280;47345;52.334;10.392;2023-01-31T12:08:35;100725.73;;;5.04;89.94
61478;BME280;47345;52.334;10.392;2023-01-31T12:11:28;100723.56;;;5.06;90.17
61478;BME280;47345;52.334;10.392;2023-01-31T12:14:11;100722.84;;;5.07;90.19
61478;BME280;47345;52.334;10.392;2023-01-31T12:16:42;100723.61;;;5.10;90.46
61478;BME280;47345;52.334;10.392;2023-01-31T12:19:23;100717.35;;;5.09;90.36
61478;BME280;47345;52.334;10.392;2023-01-31T12:22:01;100716.38;;;5.12;90.39
61478;BME280;47345;52.334;10.392;2023-01-31T12:24:35;100703.95;;;5.13;90.64
61478;BME280;47345;52.334;10.392;2023-01-31T12:27:19;100698.91;;;5.11;90.46
61478;BME280;47345;52.334;10.392;2023-01-31T12:30:25;100697.28;;;5.13;90.56
61478;BME280;47345;52.334;10.392;2023-01-31T12:33:18;100689.45;;;5.13;90.44
61478;BME280;47345;52.334;10.392;2023-01-31T12:36:00;100684.17;;;5.14;90.51
61478;BME280;47345;52.334;10.392;2023-01-31T12:41:40;100684.27;;;5.14;90.50
61478;BME280;47345;52.334;10.392;2023-01-31T12:44:33;100684.06;;;5.14;90.41
61478;BME280;47345;52.334;10.392;2023-01-31T12:47:33;100685.92;;;5.16;90.51
61478;BME280;47345;52.334;10.392;2023-01-31T12:50:21;100694.73;;;5.16;90.58
61478;BME280;47345;52.334;10.392;2023-01-31T12:53:15;100688.23;;;5.18;90.58
61478;BME280;47345;52.334;10.392;2023-01-31T12:55:56;100682.02;;;5.16;90.54
61478;BME280;47345;52.334;10.392;2023-01-31T12:58:42;100679.52;;;5.18;90.55
61478;BME280;47345;52.334;10.392;2023-01-31T13:01:16;100681.83;;;5.17;90.57
61478;BME280;47345;52.334;10.392;2023-01-31T13:04:03;100692.50;;;5.17;90.56
61478;BME280;47345;52.334;10.392;2023-01-31T13:06:44;100686.53;;;5.17;90.68
61478;BME280;47345;52.334;10.392;2023-01-31T13:09:19;100689.66;;;5.18;90.70
61478;BME280;47345;52.334;10.392;2023-01-31T13:11:53;100691.38;;;5.19;90.83
61478;BME280;47345;52.334;10.392;2023-01-31T13:14:30;100691.31;;;5.20;91.17
61478;BME280;47345;52.334;10.392;2023-01-31T13:17:03;100693.13;;;5.19;91.59
61478;BME280;47345;52.334;10.392;2023-01-31T13:19:38;100691.71;;;5.17;91.99
61478;BME280;47345;52.334;10.392;2023-01-31T13:22:16;100685.52;;;5.18;92.22
61478;BME280;47345;52.334;10.392;2023-01-31T13:24:48;100684.89;;;5.17;92.62
61478;BME280;47345;52.334;10.392;2023-01-31T13:27:25;100687.30;;;5.16;92.78
61478;BME280;47345;52.334;10.392;2023-01-31T13:30:00;100680.61;;;5.15;93.11
61478;BME280;47345;52.334;10.392;2023-01-31T13:32:36;100674.84;;;5.13;93.58
61478;BME280;47345;52.334;10.392;2023-01-31T13:35:15;100681.77;;;5.12;93.69